sensor_id;sensor_type;location;lat;lon;timestamp;P1;P2;P0
77411;PMS7003;66484;49.968;19.140;2023-06-10T00:00:01;38.33;33.67;23.00
77411;PMS7003;66484;49.968;19.140;2023-06-10T00:02:28;32.33;31.00;22.33
77411;PMS7003;66484;49.968;19.140;2023-06-10T00:04:56;29.67;28.67;20.00
77411;PMS7003;66484;49.968;19.140;2023-06-10T00:07:24;33.00;31.00;21.67
77411;PMS7003;66484;49.968;19.140;2023-06-10T00:09:51;34.67;31.00;19.67
77411;PMS7003;66484;49.968;19.140;2023-06-10T00:12:18;33.33;27.00;21.00
77411;PMS7003;66484;49.968;19.140;2023-06-10T00:14:47;31.00;29.67;21.00
77411;PMS7003;66484;49.968;19.140;2023-06-10T00:17:16;34.00;30.67;23.00
77411;PMS7003;66484;49.968;19.140;2023-06-10T00:19:44;42.67;32.67;23.00
77411;PMS7003;66484;49.968;19.140;2023-06-10T00:22:14;39.33;33.67;24.00
77411;PMS7003;66484;49.968;19.140;2023-06-10T00:24:41;47.00;38.67;28.00
77411;PMS7003;66484;49.968;19.140;2023-06-10T00:27:10;45.00;35.67;24.00
77411;PMS7003;66484;49.968;19.140;2023-06-10T00:29:38;31.00;27.00;21.33
77411;PMS7003;66484;49.968;19.140;2023-06-10T00:32:05;38.33;32.33;23.67
77411;PMS7003;66484;49.968;19.140;2023-06-10T00:34:33;30.00;30.00;20.67
77411;PMS7003;66484;49.968;19.140;2023-06-10T00:37:02;31.33;30.33;20.33
77411;PMS7003;66484;49.968;19.140;2023-06-10T00:39:30;42.33;35.67;24.00
77411;PMS7003;66484;49.968;19.140;2023-06-10T00:41:57;29.33;28.00;21.00
77411;PMS7003;66484;49.968;19.140;2023-06-10T00:44:25;34.00;32.67;23.67
77411;PMS7003;66484;49.968;19.140;2023-06-10T00:46:52;44.00;36.00;26.00
77411;PMS7003;66484;49.968;19.140;2023-06-10T00:49:22;43.67;38.67;25.00
77411;PMS7003;66484;49.968;19.140;2023-06-10T00:51:50;49.67;40.00;25.00
77411;PMS7003;66484;49.968;19.140;2023-06-10T00:54:18;40.33;35.00;23.33
77411;PMS7003;66484;49.968;19.140;2023-06-10T00:56:46;39.67;34.33;23.00
77411;PMS7003;66484;49.968;19.140;2023-06-10T00:59:14;40.00;35.67;23.00
77411;PMS7003;66484;49.968;19.140;2023-06-10T01:01:41;37.33;34.00;22.67
77411;PMS7003;66484;49.968;19.140;2023-06-10T01:04:11;43.33;36.00;25.00
77411;PMS7003;66484;49.968;19.140;2023-06-10T01:09:32;36.33;33.67;22.00
77411;PMS7003;66484;49.968;19.140;2023-06-10T01:14:38;44.67;38.67;25.00
77411;PMS7003;66484;49.968;19.140;2023-06-10T01:17:12;45.33;33.33;24.00
77411;PMS7003;66484;49.968;19.140;2023-06-10T01:19:39;38.67;33.00;22.00
77411;PMS7003;66484;49.968;19.140;2023-06-10T01:22:07;38.33;33.33;23.00
77411;PMS7003;66484;49.968;19.140;2023-06-10T01:24:34;38.67;34.67;24.00
77411;PMS7003;66484;49.968;19.140;2023-06-10T01:27:03;41.00;34.67;25.00
77411;PMS7003;66484;49.968;19.140;2023-06-10T01:29:37;39.67;35.00;25.00
77411;PMS7003;66484;49.968;19.140;2023-06-10T01:32:08;41.67;37.67;24.33
77411;PMS7003;66484;49.968;19.140;2023-06-10T01:34:42;44.00;37.00;24.67
77411;PMS7003;66484;49.968;19.140;2023-06-10T01:37:11;44.00;37.67;23.67
77411;PMS7003;66484;49.968;19.140;2023-06-10T01:39:40;41.67;36.33;23.67
77411;PMS7003;66484;49.968;19.140;2023-06-10T01:42:09;38.00;34.33;23.00
77411;PMS7003;66484;49.968;19.140;2023-06-10T01:44:38;41.67;37.33;25.00
77411;PMS7003;66484;49.968;19.140;2023-06-10T01:47:06;40.33;34.67;23.00
77411;PMS7003;66484;49.968;19.140;2023-06-10T01:49:33;36.67;34.00;23.67
77411;PMS7003;66484;49.968;19.140;2023-06-10T01:52:01;44.00;36.33;23.33
77411;PMS7003;66484;49.968;19.140;2023-06-10T01:54:29;36.33;33.00;23.00
77411;PMS7003;66484;49.968;19.140;2023-06-10T01:56:56;37.33;33.00;22.00
77411;PMS7003;66484;49.968;19.140;2023-06-10T01:59:23;40.00;35.00;24.67
77411;PMS7003;66484;49.968;19.140;2023-06-10T02:01:51;45.67;35.33;24.00
77411;PMS7003;66484;49.968;19.140;2023-06-10T02:04:18;40.00;33.00;23.00
77411;PMS7003;66484;49.968;19.140;2023-06-10T02:06:45;41.67;34.00;23.00
77411;PMS7003;66484;49.968;19.140;2023-06-10T02:09:13;36.67;34.00;22.67
77411;PMS7003;66484;49.968;19.140;2023-06-10T02:11:40;42.00;36.67;23.00
77411;PMS7003;66484;49.968;19.140;2023-06-10T02:14:07;42.67;36.67;24.67
77411;PMS7003;66484;49.968;19.140;2023-06-10T02:16:34;36.00;31.33;23.00
77411;PMS7003;66484;49.968;19.140;2023-06-10T02:19:02;43.00;36.67;23.33
77411;PMS7003;66484;49.968;19.140;2023-06-10T02:21:33;47.67;40.00;25.00
77411;PMS7003;66484;49.968;19.140;2023-06-10T02:24:03;48.33;41.00;26.33
77411;PMS7003;66484;49.968;19.140;2023-06-10T02:26:31;48.67;39.67;25.00
77411;PMS7003;66484;49.968;19.140;2023-06-10T02:28:59;48.67;40.67;27.00
77411;PMS7003;66484;49.968;19.140;2023-06-10T02:31:26;51.33;40.00;25.00
77411;PMS7003;66484;49.968;19.140;2023-06-10T02:33:55;50.00;42.67;27.00
77411;PMS7003;66484;49.968;19.140;2023-06-10T02:36:23;48.33;40.67;27.00
77411;PMS7003;66484;49.968;19.140;2023-06-10T02:38:51;44.33;38.33;25.00
77411;PMS7003;66484;49.968;19.140;2023-06-10T02:41:18;48.33;40.67;26.00
77411;PMS7003;66484;49.968;19.140;2023-06-10T02:43:46;43.33;38.00;25.67
77411;PMS7003;66484;49.968;19.140;2023-06-10T02:46:13;49.00;40.67;27.33
77411;PMS7003;66484;49.968;19.140;2023-06-10T02:48:41;46.67;39.33;26.33
77411;PMS7003;66484;49.968;19.140;2023-06-10T02:51:10;45.00;36.67;23.00
77411;PMS7003;66484;49.968;19.140;2023-06-10T02:53:38;47.67;39.33;26.00
77411;PMS7003;66484;49.968;19.140;2023-06-10T02:56:05;44.67;36.33;26.00
77411;PMS7003;66484;49.968;19.140;2023-06-10T02:58:33;46.33;37.00;26.33
77411;PMS7003;66484;49.968;19.140;2023-06-10T03:01:00;49.67;41.33;27.00
77411;PMS7003;66484;49.968;19.140;2023-06-10T03:03:27;56.00;45.33;29.00
77411;PMS7003;66484;49.968;19.140;2023-06-10T03:05:55;52.67;42.67;29.00
77411;PMS7003;66484;49.968;19.140;2023-06-10T03:08:23;53.00;45.00;30.00
77411;PMS7003;66484;49.968;19.140;2023-06-10T03:10:51;55.33;46.67;30.00
77411;PMS7003;66484;49.968;19.140;2023-06-10T03:13:18;57.33;46.00;29.00
77411;PMS7003;66484;49.968;19.140;2023-06-10T03:15:45;46.33;39.00;27.67
77411;PMS7003;66484;49.968;19.140;2023-06-10T03:18:13;48.00;38.00;25.00
77411;PMS7003;66484;49.968;19.140;2023-06-10T03:20:41;42.67;37.33;26.67
77411;PMS7003;66484;49.968;19.140;2023-06-10T03:23:08;44.33;38.00;26.00
77411;PMS7003;66484;49.968;19.140;2023-06-10T03:25:36;43.33;37.33;25.67
77411;PMS7003;66484;49.968;19.140;2023-06-10T03:28:04;49.67;41.33;27.67
77411;PMS7003;66484;49.968;19.140;2023-06-10T03:30:31;42.67;37.33;24.00
77411;PMS7003;66484;49.968;19.140;2023-06-10T03:32:58;49.67;43.00;29.00
77411;PMS7003;66484;49.968;19.140;2023-06-10T03:35:25;52.00;44.00;28.00
77411;PMS7003;66484;49.968;19.140;2023-06-10T03:37:53;47.00;40.00;26.67
77411;PMS7003;66484;49.968;19.140;2023-06-10T03:40:20;45.33;37.00;26.67
77411;PMS7003;66484;49.968;19.140;2023-06-10T03:42:48;48.33;41.67;26.33
77411;PMS7003;66484;49.968;19.140;2023-06-10T03:45:15;44.00;38.33;26.33
77411;PMS7003;66484;49.968;19.140;2023-06-10T03:47:43;42.00;37.00;24.67
77411;PMS7003;66484;49.968;19.140;2023-06-10T03:50:10;45.67;38.33;27.33
77411;PMS7003;66484;49.968;19.140;2023-06-10T03:52:38;42.67;36.33;25.33
77411;PMS7003;66484;49.968;19.140;2023-06-10T03:55:06;47.33;39.33;26.00
77411;PMS7003;66484;49.968;19.140;2023-06-10T03:57:35;46.67;38.33;25.00
77411;PMS7003;66484;49.968;19.140;2023-06-10T04:00:02;43.67;37.33;26.67
77411;PMS7003;66484;49.968;19.140;2023-06-10T04:02:35;47.67;37.67;27.00
77411;PMS7003;66484;49.968;19.140;2023-06-10T04:05:03;45.33;39.00;26.67
77411;PMS7003;66484;49.968;19.140;2023-06-10T04:07:31;47.00;38.33;25.67
77411;PMS7003;66484;49.968;19.140;2023-06-10T04:09:59;52.00;41.33;28.00
77411;PMS7003;66484;49.968;19.140;2023-06-10T04:12:27;47.00;38.67;27.33
77411;PMS7003;66484;49.968;19.140;2023-06-10T04:14:54;47.00;38.00;26.00
77411;PMS7003;66484;49.968;19.140;2023-06-10T04:17:21;36.67;33.33;20.00
77411;PMS7003;66484;49.968;19.140;2023-06-10T04:19:49;47.67;39.33;27.67
77411;PMS7003;66484;49.968;19.140;2023-06-10T04:22:18;48.33;40.67;28.00
77411;PMS7003;66484;49.968;19.140;2023-06-10T04:24:45;47.33;39.33;26.00
77411;PMS7003;66484;49.968;19.140;2023-06-10T04:27:13;52.67;41.67;28.00
77411;PMS7003;66484;49.968;19.140;2023-06-10T04:29:40;49.00;40.33;27.67
77411;PMS7003;66484;49.968;19.140;2023-06-10T04:32:08;50.67;40.33;28.00
77411;PMS7003;66484;49.968;19.140;2023-06-10T04:34:36;48.67;39.33;27.33
77411;PMS7003;66484;49.968;19.140;2023-06-10T04:37:06;49.67;40.33;27.33
77411;PMS7003;66484;49.968;19.140;2023-06-10T04:39:33;50.67;43.00;28.67
77411;PMS7003;66484;49.968;19.140;2023-06-10T04:42:05;45.67;37.67;24.00
77411;PMS7003;66484;49.968;19.140;2023-06-10T04:44:32;55.00;43.67;28.33
77411;PMS7003;66484;49.968;19.140;2023-06-10T04:46:59;51.67;43.00;29.00
77411;PMS7003;66484;49.968;19.140;2023-06-10T04:49:27;42.00;37.00;24.00
77411;PMS7003;66484;49.968;19.140;2023-06-10T04:51:58;49.67;42.00;27.00
77411;PMS7003;66484;49.968;19.140;2023-06-10T04:54:26;51.00;40.33;28.00
77411;PMS7003;66484;49.968;19.140;2023-06-10T04:56:54;49.33;41.00;28.33
77411;PMS7003;66484;49.968;19.140;2023-06-10T04:59:21;51.00;41.33;28.00
77411;PMS7003;66484;49.968;19.140;2023-06-10T05:01:49;51.67;42.00;28.67
77411;PMS7003;66484;49.968;19.140;2023-06-10T05:04:16;51.00;42.33;28.33
77411;PMS7003;66484;49.968;19.140;2023-06-10T05:06:44;45.00;36.67;26.67
77411;PMS7003;66484;49.968;19.140;2023-06-10T05:09:11;50.67;41.67;28.00
77411;PMS7003;66484;49.968;19.140;2023-06-10T05:11:40;47.00;38.00;26.67
77411;PMS7003;66484;49.968;19.140;2023-06-10T05:14:07;46.67;37.00;26.33
77411;PMS7003;66484;49.968;19.140;2023-06-10T05:16:34;49.67;40.67;27.67
77411;PMS7003;66484;49.968;19.140;2023-06-10T05:19:02;48.33;39.33;28.33
77411;PMS7003;66484;49.968;19.140;2023-06-10T05:21:33;46.67;37.67;24.00
77411;PMS7003;66484;49.968;19.140;2023-06-10T05:24:01;43.00;36.00;24.00
77411;PMS7003;66484;49.968;19.140;2023-06-10T05:26:29;47.00;37.33;25.33
77411;PMS7003;66484;49.968;19.140;2023-06-10T05:28:58;44.00;37.33;24.00
77411;PMS7003;66484;49.968;19.140;2023-06-10T05:31:25;40.00;31.00;22.33
77411;PMS7003;66484;49.968;19.140;2023-06-10T05:33:53;35.00;33.00;22.67
77411;PMS7003;66484;49.968;19.140;2023-06-10T05:36:20;45.67;36.33;25.33
77411;PMS7003;66484;49.968;19.140;2023-06-10T05:38:47;43.33;38.00;26.33
77411;PMS7003;66484;49.968;19.140;2023-06-10T05:41:15;43.33;36.67;24.67
77411;PMS7003;66484;49.968;19.140;2023-06-10T05:43:43;37.00;33.00;22.00
77411;PMS7003;66484;49.968;19.140;2023-06-10T05:46:10;40.67;34.67;24.00
77411;PMS7003;66484;49.968;19.140;2023-06-10T05:48:38;39.50;34.25;23.25
77411;PMS7003;66484;49.968;19.140;2023-06-10T05:51:05;42.25;36.00;24.75
77411;PMS7003;66484;49.968;19.140;2023-06-10T05:53:33;33.75;31.50;22.50
77411;PMS7003;66484;49.968;19.140;2023-06-10T05:56:01;37.00;33.00;23.00
77411;PMS7003;66484;49.968;19.140;2023-06-10T05:58:31;27.50;27.50;20.50
77411;PMS7003;66484;49.968;19.140;2023-06-10T06:00:58;30.75;30.50;21.00
77411;PMS7003;66484;49.968;19.140;2023-06-10T06:03:26;27.50;25.50;19.25
77411;PMS7003;66484;49.968;19.140;2023-06-10T06:05:55;26.75;24.75;18.00
77411;PMS7003;66484;49.968;19.140;2023-06-10T06:08:23;29.50;26.50;19.00
77411;PMS7003;66484;49.968;19.140;2023-06-10T06:10:50;22.75;20.25;14.50
77411;PMS7003;66484;49.968;19.140;2023-06-10T06:13:17;32.50;27.50;20.50
77411;PMS7003;66484;49.968;19.140;2023-06-10T06:15:45;25.00;23.25;17.50
77411;PMS7003;66484;49.968;19.140;2023-06-10T06:18:12;25.25;23.25;17.00
77411;PMS7003;66484;49.968;19.140;2023-06-10T06:20:40;23.75;23.25;19.75
77411;PMS7003;66484;49.968;19.140;2023-06-10T06:23:07;27.75;25.75;19.25
77411;PMS7003;66484;49.968;19.140;2023-06-10T06:25:38;26.75;26.00;19.50
77411;PMS7003;66484;49.968;19.140;2023-06-10T06:28:06;26.00;23.50;17.75
77411;PMS7003;66484;49.968;19.140;2023-06-10T06:30:34;24.25;23.75;17.00
77411;PMS7003;66484;49.968;19.140;2023-06-10T06:33:02;28.25;24.25;18.75
77411;PMS7003;66484;49.968;19.140;2023-06-10T06:35:33;30.00;28.00;19.75
77411;PMS7003;66484;49.968;19.140;2023-06-10T06:38:00;23.50;23.50;17.75
77411;PMS7003;66484;49.968;19.140;2023-06-10T06:40:28;25.25;24.25;18.00
77411;PMS7003;66484;49.968;19.140;2023-06-10T06:42:55;28.25;25.00;17.75
77411;PMS7003;66484;49.968;19.140;2023-06-10T06:45:23;28.00;28.00;21.00
77411;PMS7003;66484;49.968;19.140;2023-06-10T06:47:50;29.75;24.75;17.50
77411;PMS7003;66484;49.968;19.140;2023-06-10T06:50:18;29.25;25.00;19.50
77411;PMS7003;66484;49.968;19.140;2023-06-10T06:52:46;17.50;17.50;12.75
77411;PMS7003;66484;49.968;19.140;2023-06-10T06:55:13;21.75;19.00;13.00
77411;PMS7003;66484;49.968;19.140;2023-06-10T06:57:40;20.25;19.00;14.50
77411;PMS7003;66484;49.968;19.140;2023-06-10T07:00:08;18.25;18.25;15.00
77411;PMS7003;66484;49.968;19.140;2023-06-10T07:02:36;20.25;18.00;14.50
77411;PMS7003;66484;49.968;19.140;2023-06-10T07:05:04;24.50;24.50;17.75
77411;PMS7003;66484;49.968;19.140;2023-06-10T07:07:32;19.25;19.25;15.50
77411;PMS7003;66484;49.968;19.140;2023-06-10T07:10:00;22.00;17.25;13.50
77411;PMS7003;66484;49.968;19.140;2023-06-10T07:12:27;19.00;18.75;15.75
77411;PMS7003;66484;49.968;19.140;2023-06-10T07:14:55;17.00;17.00;13.75
77411;PMS7003;66484;49.968;19.140;2023-06-10T07:17:22;18.75;18.75;16.00
77411;PMS7003;66484;49.968;19.140;2023-06-10T07:19:50;22.50;21.25;15.50
77411;PMS7003;66484;49.968;19.140;2023-06-10T07:22:18;19.25;19.25;13.00
77411;PMS7003;66484;49.968;19.140;2023-06-10T07:24:48;23.25;22.25;17.00
77411;PMS7003;66484;49.968;19.140;2023-06-10T07:27:17;18.25;18.25;14.00
77411;PMS7003;66484;49.968;19.140;2023-06-10T07:29:45;21.50;19.50;16.00
77411;PMS7003;66484;49.968;19.140;2023-06-10T07:32:13;20.75;20.75;16.00
77411;PMS7003;66484;49.968;19.140;2023-06-10T07:34:42;16.25;15.50;12.00
77411;PMS7003;66484;49.968;19.140;2023-06-10T07:37:11;17.50;17.50;13.75
77411;PMS7003;66484;49.968;19.140;2023-06-10T07:39:38;17.50;16.50;13.50
77411;PMS7003;66484;49.968;19.140;2023-06-10T07:42:05;15.75;15.75;13.00
77411;PMS7003;66484;49.968;19.140;2023-06-10T07:44:33;20.00;20.00;15.50
77411;PMS7003;66484;49.968;19.140;2023-06-10T07:47:01;17.00;16.00;12.50
77411;PMS7003;66484;49.968;19.140;2023-06-10T07:49:28;17.50;16.00;13.00
77411;PMS7003;66484;49.968;19.140;2023-06-10T07:51:57;18.50;17.50;15.00
77411;PMS7003;66484;49.968;19.140;2023-06-10T07:54:25;17.25;16.50;12.75
77411;PMS7003;66484;49.968;19.140;2023-06-10T07:56:56;18.25;16.75;13.50
77411;PMS7003;66484;49.968;19.140;2023-06-10T07:59:23;20.50;19.00;14.00
77411;PMS7003;66484;49.968;19.140;2023-06-10T08:01:53;17.75;16.25;14.25
77411;PMS7003;66484;49.968;19.140;2023-06-10T08:04:20;14.00;12.00;10.00
77411;PMS7003;66484;49.968;19.140;2023-06-10T08:06:48;15.75;15.75;12.25
77411;PMS7003;66484;49.968;19.140;2023-06-10T08:09:16;18.00;18.00;13.50
77411;PMS7003;66484;49.968;19.140;2023-06-10T08:11:44;16.75;15.25;12.50
77411;PMS7003;66484;49.968;19.140;2023-06-10T08:14:13;16.25;15.75;12.00
77411;PMS7003;66484;49.968;19.140;2023-06-10T08:16:41;17.50;15.00;13.75
77411;PMS7003;66484;49.968;19.140;2023-06-10T08:19:08;17.25;17.00;15.00
77411;PMS7003;66484;49.968;19.140;2023-06-10T08:21:36;17.75;17.00;13.75
77411;PMS7003;66484;49.968;19.140;2023-06-10T08:24:06;18.25;18.25;14.00
77411;PMS7003;66484;49.968;19.140;2023-06-10T08:26:34;15.25;14.25;11.00
77411;PMS7003;66484;49.968;19.140;2023-06-10T08:29:01;16.75;15.75;13.50
77411;PMS7003;66484;49.968;19.140;2023-06-10T08:31:29;16.75;15.00;13.00
77411;PMS7003;66484;49.968;19.140;2023-06-10T08:33:57;15.25;15.25;13.00
77411;PMS7003;66484;49.968;19.140;2023-06-10T08:36:24;21.50;21.50;17.00
77411;PMS7003;66484;49.968;19.140;2023-06-10T08:38:52;14.50;14.00;12.25
77411;PMS7003;66484;49.968;19.140;2023-06-10T08:41:19;17.75;17.75;15.00
77411;PMS7003;66484;49.968;19.140;2023-06-10T08:43:53;16.50;16.25;13.50
77411;PMS7003;66484;49.968;19.140;2023-06-10T08:46:25;20.25;18.25;15.50
77411;PMS7003;66484;49.968;19.140;2023-06-10T08:48:54;17.00;15.00;12.75
77411;PMS7003;66484;49.968;19.140;2023-06-10T08:51:22;18.75;18.75;14.50
77411;PMS7003;66484;49.968;19.140;2023-06-10T08:53:53;17.50;16.25;12.00
77411;PMS7003;66484;49.968;19.140;2023-06-10T08:56:26;18.25;18.25;15.00
77411;PMS7003;66484;49.968;19.140;2023-06-10T08:58:55;20.50;19.75;15.50
77411;PMS7003;66484;49.968;19.140;2023-06-10T09:01:24;22.50;22.25;16.75
77411;PMS7003;66484;49.968;19.140;2023-06-10T09:03:53;17.25;17.25;13.75
77411;PMS7003;66484;49.968;19.140;2023-06-10T09:06:24;19.25;19.25;15.00
77411;PMS7003;66484;49.968;19.140;2023-06-10T09:08:52;20.00;20.00;15.00
77411;PMS7003;66484;49.968;19.140;2023-06-10T09:11:20;21.50;21.25;16.25
77411;PMS7003;66484;49.968;19.140;2023-06-10T09:13:47;22.50;21.50;16.75
77411;PMS7003;66484;49.968;19.140;2023-06-10T09:16:15;21.25;19.75;16.00
77411;PMS7003;66484;49.968;19.140;2023-06-10T09:18:43;23.75;21.25;17.50
77411;PMS7003;66484;49.968;19.140;2023-06-10T09:21:11;21.25;18.75;15.00
77411;PMS7003;66484;49.968;19.140;2023-06-10T09:23:38;18.00;18.00;15.50
77411;PMS7003;66484;49.968;19.140;2023-06-10T09:26:08;19.25;19.00;13.50
77411;PMS7003;66484;49.968;19.140;2023-06-10T09:28:36;17.50;16.50;12.00
77411;PMS7003;66484;49.968;19.140;2023-06-10T09:31:04;18.25;18.00;14.25
77411;PMS7003;66484;49.968;19.140;2023-06-10T09:33:32;16.25;16.25;13.50
77411;PMS7003;66484;49.968;19.140;2023-06-10T09:36:01;19.00;17.50;15.25
77411;PMS7003;66484;49.968;19.140;2023-06-10T09:38:29;18.50;17.75;14.50
77411;PMS7003;66484;49.968;19.140;2023-06-10T09:40:58;17.25;16.25;15.00
77411;PMS7003;66484;49.968;19.140;2023-06-10T09:43:41;18.75;18.75;15.75
77411;PMS7003;66484;49.968;19.140;2023-06-10T09:46:17;17.00;17.00;14.00
77411;PMS7003;66484;49.968;19.140;2023-06-10T09:48:46;20.00;18.75;15.25
77411;PMS7003;66484;49.968;19.140;2023-06-10T09:51:15;21.50;18.00;16.00
77411;PMS7003;66484;49.968;19.140;2023-06-10T09:53:49;19.50;18.50;15.25
77411;PMS7003;66484;49.968;19.140;2023-06-10T09:56:18;22.00;21.00;15.50
77411;PMS7003;66484;49.968;19.140;2023-06-10T09:58:46;20.00;20.00;16.25
77411;PMS7003;66484;49.968;19.140;2023-06-10T10:01:14;17.75;17.75;14.00
77411;PMS7003;66484;49.968;19.140;2023-06-10T10:06:17;19.75;19.75;15.25
77411;PMS7003;66484;49.968;19.140;2023-06-10T10:08:46;20.50;19.00;15.75
77411;PMS7003;66484;49.968;19.140;2023-06-10T10:11:19;18.25;18.25;16.25
77411;PMS7003;66484;49.968;19.140;2023-06-10T10:13:51;26.50;23.25;17.50
77411;PMS7003;66484;49.968;19.140;2023-06-10T10:19:01;14.00;13.50;11.75
77411;PMS7003;66484;49.968;19.140;2023-06-10T10:21:35;21.75;21.75;17.25
77411;PMS7003;66484;49.968;19.140;2023-06-10T10:26:38;19.25;19.25;15.25
77411;PMS7003;66484;49.968;19.140;2023-06-10T10:29:16;22.75;20.25;15.00
77411;PMS7003;66484;49.968;19.140;2023-06-10T10:31:51;17.75;17.75;15.00
77411;PMS7003;66484;49.968;19.140;2023-06-10T10:34:29;22.50;19.50;16.75
77411;PMS7003;66484;49.968;19.140;2023-06-10T10:37:01;17.25;17.00;14.00
77411;PMS7003;66484;49.968;19.140;2023-06-10T10:39:30;18.00;18.00;13.50
77411;PMS7003;66484;49.968;19.140;2023-06-10T10:41:58;17.25;16.75;14.50
77411;PMS7003;66484;49.968;19.140;2023-06-10T10:44:26;25.00;24.00;16.00
77411;PMS7003;66484;49.968;19.140;2023-06-10T10:46:53;20.75;20.75;18.00
77411;PMS7003;66484;49.968;19.140;2023-06-10T10:49:21;23.25;21.25;17.00
77411;PMS7003;66484;49.968;19.140;2023-06-10T10:51:57;17.75;14.75;12.25
77411;PMS7003;66484;49.968;19.140;2023-06-10T10:54:32;18.75;18.75;14.25
77411;PMS7003;66484;49.968;19.140;2023-06-10T11:02:59;10.00;10.00;10.00
77411;PMS7003;66484;49.968;19.140;2023-06-10T11:05:10;12.00;11.50;11.00
77411;PMS7003;66484;49.968;19.140;2023-06-10T11:07:51;11.00;11.00;9.25
77411;PMS7003;66484;49.968;19.140;2023-06-10T11:10:28;12.50;11.25;9.25
77411;PMS7003;66484;49.968;19.140;2023-06-10T11:13:04;18.75;17.75;14.75
77411;PMS7003;66484;49.968;19.140;2023-06-10T11:15:42;15.75;13.00;11.00
77411;PMS7003;66484;49.968;19.140;2023-06-10T11:18:27;15.00;13.75;10.25
77411;PMS7003;66484;49.968;19.140;2023-06-10T11:20:56;10.75;10.75;9.00
77411;PMS7003;66484;49.968;19.140;2023-06-10T11:31:29;17.50;14.00;9.00
77411;PMS7003;66484;49.968;19.140;2023-06-10T11:33:58;14.75;12.00;10.00
77411;PMS7003;66484;49.968;19.140;2023-06-10T11:36:30;21.25;16.50;11.75
77411;PMS7003;66484;49.968;19.140;2023-06-10T11:39:00;17.50;15.50;12.50
77411;PMS7003;66484;49.968;19.140;2023-06-10T11:41:29;14.25;14.25;8.75
77411;PMS7003;66484;49.968;19.140;2023-06-10T11:44:04;20.00;18.50;14.25
77411;PMS7003;66484;49.968;19.140;2023-06-10T11:46:37;17.00;16.00;12.00
77411;PMS7003;66484;49.968;19.140;2023-06-10T11:49:06;14.25;13.25;10.00
77411;PMS7003;66484;49.968;19.140;2023-06-10T11:51:35;15.00;14.50;12.25
77411;PMS7003;66484;49.968;19.140;2023-06-10T11:54:10;15.75;15.75;12.50
77411;PMS7003;66484;49.968;19.140;2023-06-10T11:56:38;19.00;16.00;13.00
77411;PMS7003;66484;49.968;19.140;2023-06-10T11:59:06;19.00;19.00;14.25
77411;PMS7003;66484;49.968;19.140;2023-06-10T12:01:35;20.00;17.00;13.75
77411;PMS7003;66484;49.968;19.140;2023-06-10T12:04:10;21.25;17.75;12.25
77411;PMS7003;66484;49.968;19.140;2023-06-10T12:06:46;16.75;15.50;11.75
77411;PMS7003;66484;49.968;19.140;2023-06-10T12:09:24;14.25;14.25;11.00
77411;PMS7003;66484;49.968;19.140;2023-06-10T12:11:58;15.00;13.75;12.00
77411;PMS7003;66484;49.968;19.140;2023-06-10T12:20:01;13.00;12.00;9.75
77411;PMS7003;66484;49.968;19.140;2023-06-10T12:22:42;16.25;13.00;11.00
77411;PMS7003;66484;49.968;19.140;2023-06-10T12:25:12;12.25;12.25;9.50
77411;PMS7003;66484;49.968;19.140;2023-06-10T12:27:49;18.75;15.75;12.25
77411;PMS7003;66484;49.968;19.140;2023-06-10T12:30:20;15.75;15.25;11.50
77411;PMS7003;66484;49.968;19.140;2023-06-10T12:32:49;13.75;12.50;10.75
77411;PMS7003;66484;49.968;19.140;2023-06-10T12:35:17;14.25;12.50;10.00
77411;PMS7003;66484;49.968;19.140;2023-06-10T12:37:58;12.50;12.00;10.25
77411;PMS7003;66484;49.968;19.140;2023-06-10T12:40:30;11.75;11.75;8.00
77411;PMS7003;66484;49.968;19.140;2023-06-10T12:43:02;9.75;9.75;8.50
77411;PMS7003;66484;49.968;19.140;2023-06-10T12:45:31;11.75;10.25;7.75
77411;PMS7003;66484;49.968;19.140;2023-06-10T12:50:56;16.50;14.25;11.25
77411;PMS7003;66484;49.968;19.140;2023-06-10T12:53:25;12.00;12.00;9.50
77411;PMS7003;66484;49.968;19.140;2023-06-10T12:55:53;12.75;12.75;8.00
77411;PMS7003;66484;49.968;19.140;2023-06-10T12:58:21;16.25;14.00;10.00
77411;PMS7003;66484;49.968;19.140;2023-06-10T13:00:50;9.25;9.25;8.50
77411;PMS7003;66484;49.968;19.140;2023-06-10T13:03:20;13.00;13.00;11.00
77411;PMS7003;66484;49.968;19.140;2023-06-10T13:05:48;14.25;14.25;10.00
77411;PMS7003;66484;49.968;19.140;2023-06-10T13:08:16;8.75;8.75;6.00
77411;PMS7003;66484;49.968;19.140;2023-06-10T13:10:44;10.25;10.25;9.75
77411;PMS7003;66484;49.968;19.140;2023-06-10T13:13:12;13.25;11.75;9.25
77411;PMS7003;66484;49.968;19.140;2023-06-10T13:15:41;12.50;12.50;9.50
77411;PMS7003;66484;49.968;19.140;2023-06-10T13:18:10;12.25;9.25;8.25
77411;PMS7003;66484;49.968;19.140;2023-06-10T13:20:38;14.75;12.00;10.00
77411;PMS7003;66484;49.968;19.140;2023-06-10T13:23:06;11.75;9.75;8.00
77411;PMS7003;66484;49.968;19.140;2023-06-10T13:25:34;10.00;10.00;9.00
77411;PMS7003;66484;49.968;19.140;2023-06-10T13:28:04;11.50;9.75;8.75
77411;PMS7003;66484;49.968;19.140;2023-06-10T13:30:32;13.50;11.00;8.25
77411;PMS7003;66484;49.968;19.140;2023-06-10T13:33:01;11.75;11.75;9.00
77411;PMS7003;66484;49.968;19.140;2023-06-10T13:35:29;7.25;5.75;4.00
77411;PMS7003;66484;49.968;19.140;2023-06-10T13:37:57;13.25;13.00;10.25
77411;PMS7003;66484;49.968;19.140;2023-06-10T13:40:24;10.75;10.75;8.00
77411;PMS7003;66484;49.968;19.140;2023-06-10T13:42:52;16.00;14.25;10.25
77411;PMS7003;66484;49.968;19.140;2023-06-10T13:45:21;9.50;9.00;8.25
77411;PMS7003;66484;49.968;19.140;2023-06-10T13:47:49;13.00;11.00;9.25
77411;PMS7003;66484;49.968;19.140;2023-06-10T13:50:17;10.50;10.25;8.75
77411;PMS7003;66484;49.968;19.140;2023-06-10T13:52:44;15.00;13.00;10.75
77411;PMS7003;66484;49.968;19.140;2023-06-10T13:55:12;12.00;11.00;9.75
77411;PMS7003;66484;49.968;19.140;2023-06-10T13:57:40;13.50;13.50;11.75
77411;PMS7003;66484;49.968;19.140;2023-06-10T14:00:08;14.00;14.00;12.00
77411;PMS7003;66484;49.968;19.140;2023-06-10T14:02:37;4.00;4.00;2.50
77411;PMS7003;66484;49.968;19.140;2023-06-10T14:05:06;10.75;9.75;7.75
77411;PMS7003;66484;49.968;19.140;2023-06-10T14:07:35;12.50;11.50;10.00
77411;PMS7003;66484;49.968;19.140;2023-06-10T14:10:05;8.50;8.50;6.00
77411;PMS7003;66484;49.968;19.140;2023-06-10T14:12:34;7.75;7.75;6.00
77411;PMS7003;66484;49.968;19.140;2023-06-10T14:15:02;9.75;9.75;7.25
77411;PMS7003;66484;49.968;19.140;2023-06-10T14:17:30;12.00;12.00;10.00
77411;PMS7003;66484;49.968;19.140;2023-06-10T14:19:57;9.75;9.00;8.00